sensor_id;sensor_type;location;lat;lon;timestamp;pressure;altitude;pressure_sealevel;temperature;humidity
62617;BME280;62539;51.190;6.808;2023-05-01T00:00:54;101445.06;;;21.54;51.47
62617;BME280;62539;51.190;6.808;2023-05-01T00:03:19;101435.44;;;21.53;51.36
62617;BME280;62539;51.190;6.808;2023-05-01T00:05:45;101431.09;;;21.50;51.31
62617;BME280;62539;51.190;6.808;2023-05-01T00:08:11;101431.19;;;21.49;51.06
62617;BME280;62539;51.190;6.808;2023-05-01T00:10:37;101430.31;;;21.48;51.21
62617;BME280;62539;51.190;6.808;2023-05-01T00:13:03;101429.50;;;21.46;51.31
62617;BME280;62539;51.190;6.808;2023-05-01T00:15:30;101424.28;;;21.44;51.24
62617;BME280;62539;51.190;6.808;2023-05-01T00:17:56;101421.69;;;21.43;51.11
62617;BME280;62539;51.190;6.808;2023-05-01T00:20:26;101412.94;;;21.42;51.15
62617;BME280;62539;51.190;6.808;2023-05-01T00:22:52;101414.75;;;21.40;51.10
62617;BME280;62539;51.190;6.808;2023-05-01T00:25:17;101406.88;;;21.39;51.24
62617;BME280;62539;51.190;6.808;2023-05-01T00:27:43;101405.16;;;21.38;51.37
62617;BME280;62539;51.190;6.808;2023-05-01T00:30:08;101408.72;;;21.37;51.40
62617;BME280;62539;51.190;6.808;2023-05-01T00:32:34;101407.88;;;21.36;51.35
62617;BME280;62539;51.190;6.808;2023-05-01T00:35:00;101399.16;;;21.34;51.55
62617;BME280;62539;51.190;6.808;2023-05-01T00:37:25;101407.09;;;21.33;51.19
62617;BME280;62539;51.190;6.808;2023-05-01T00:39:51;101406.25;;;21.32;51.26
62617;BME280;62539;51.190;6.808;2023-05-01T00:42:16;101403.66;;;21.30;51.19
62617;BME280;62539;51.190;6.808;2023-05-01T00:44:41;101395.81;;;21.29;51.28
62617;BME280;62539;51.190;6.808;2023-05-01T00:47:07;101404.66;;;21.28;51.31
62617;BME280;62539;51.190;6.808;2023-05-01T00:49:32;101394.13;;;21.26;51.38
62617;BME280;62539;51.190;6.808;2023-05-01T00:51:58;101391.56;;;21.25;51.46
62617;BME280;62539;51.190;6.808;2023-05-01T00:54:24;101380.19;;;21.23;51.36
62617;BME280;62539;51.190;6.808;2023-05-01T00:56:52;101385.47;;;21.23;51.37
62617;BME280;62539;51.190;6.808;2023-05-01T00:59:18;101376.75;;;21.21;51.29
62617;BME280;62539;51.190;6.808;2023-05-01T01:01:44;101377.69;;;21.20;51.47
62617;BME280;62539;51.190;6.808;2023-05-01T01:04:10;101375.03;;;21.20;51.50
62617;BME280;62539;51.190;6.808;2023-05-01T01:07:03;101370.75;;;21.17;51.39
62617;BME280;62539;51.190;6.808;2023-05-01T01:09:47;101369.03;;;21.16;51.52
62617;BME280;62539;51.190;6.808;2023-05-01T01:12:31;101364.72;;;21.13;51.47
62617;BME280;62539;51.190;6.808;2023-05-01T01:15:09;101368.25;;;21.12;51.67
62617;BME280;62539;51.190;6.808;2023-05-01T01:18:02;101356.91;;;21.10;51.60
62617;BME280;62539;51.190;6.808;2023-05-01T01:20:41;101360.47;;;21.09;51.73
62617;BME280;62539;51.190;6.808;2023-05-01T01:23:35;101356.22;;;21.05;51.92
62617;BME280;62539;51.190;6.808;2023-05-01T01:29:16;101345.75;;;21.02;51.52
62617;BME280;62539;51.190;6.808;2023-05-01T01:34:53;101342.31;;;21.00;51.82
62617;BME280;62539;51.190;6.808;2023-05-01T01:37:29;101345.88;;;20.99;51.57
62617;BME280;62539;51.190;6.808;2023-05-01T01:40:04;101342.44;;;20.97;51.84
62617;BME280;62539;51.190;6.808;2023-05-01T01:42:41;101336.34;;;20.95;51.72
62617;BME280;62539;51.190;6.808;2023-05-01T01:45:21;101339.00;;;20.95;51.84
62617;BME280;62539;51.190;6.808;2023-05-01T01:47:49;101334.63;;;20.94;51.85
62617;BME280;62539;51.190;6.808;2023-05-01T01:50:17;101333.78;;;20.93;51.88
62617;BME280;62539;51.190;6.808;2023-05-01T01:52:48;101330.28;;;20.93;51.92
62617;BME280;62539;51.190;6.808;2023-05-01T01:55:15;101324.19;;;20.91;51.81
62617;BME280;62539;51.190;6.808;2023-05-01T01:57:49;101317.19;;;20.90;51.83
62617;BME280;62539;51.190;6.808;2023-05-01T02:00:16;101320.75;;;20.89;51.77
62617;BME280;62539;51.190;6.808;2023-05-01T02:02:43;101319.91;;;20.88;51.93
62617;BME280;62539;51.190;6.808;2023-05-01T02:05:13;101316.38;;;20.88;52.00
62617;BME280;62539;51.190;6.808;2023-05-01T02:07:44;101313.81;;;20.86;51.93
62617;BME280;62539;51.190;6.808;2023-05-01T02:10:13;101311.22;;;20.84;51.85
62617;BME280;62539;51.190;6.808;2023-05-01T02:12:41;101306.88;;;20.83;51.78
62617;BME280;62539;51.190;6.808;2023-05-01T02:15:10;101302.50;;;20.82;51.79
62617;BME280;62539;51.190;6.808;2023-05-01T02:17:39;101304.28;;;20.82;51.86
62617;BME280;62539;51.190;6.808;2023-05-01T02:20:07;101295.59;;;20.80;51.94
62617;BME280;62539;51.190;6.808;2023-05-01T02:22:38;101302.63;;;20.79;52.13
62617;BME280;62539;51.190;6.808;2023-05-01T02:25:06;101290.34;;;20.78;52.17
62617;BME280;62539;51.190;6.808;2023-05-01T02:27:37;101288.59;;;20.77;51.79
62617;BME280;62539;51.190;6.808;2023-05-01T02:30:11;101285.16;;;20.75;52.11
62617;BME280;62539;51.190;6.808;2023-05-01T02:32:37;101290.44;;;20.75;52.14
62617;BME280;62539;51.190;6.808;2023-05-01T02:35:02;101282.59;;;20.74;51.99
62617;BME280;62539;51.190;6.808;2023-05-01T02:37:28;101281.72;;;20.73;52.08
62617;BME280;62539;51.190;6.808;2023-05-01T02:39:55;101282.63;;;20.72;52.02
62617;BME280;62539;51.190;6.808;2023-05-01T02:42:22;101274.72;;;20.72;52.08
62617;BME280;62539;51.190;6.808;2023-05-01T02:44:56;101273.00;;;20.71;51.98
62617;BME280;62539;51.190;6.808;2023-05-01T02:47:26;101269.56;;;20.69;52.04
62617;BME280;62539;51.190;6.808;2023-05-01T02:49:54;101264.28;;;20.69;52.13
62617;BME280;62539;51.190;6.808;2023-05-01T02:52:21;101260.84;;;20.67;52.06
62617;BME280;62539;51.190;6.808;2023-05-01T02:54:48;101258.19;;;20.67;52.02
62617;BME280;62539;51.190;6.808;2023-05-01T02:57:15;101259.13;;;20.66;52.20
62617;BME280;62539;51.190;6.808;2023-05-01T02:59:44;101252.22;;;20.62;52.31
62617;BME280;62539;51.190;6.808;2023-05-01T03:02:10;101254.03;;;20.61;52.09
62617;BME280;62539;51.190;6.808;2023-05-01T03:04:35;101248.78;;;20.60;52.22
62617;BME280;62539;51.190;6.808;2023-05-01T03:07:01;101242.72;;;20.58;52.23
62617;BME280;62539;51.190;6.808;2023-05-01T03:09:26;101241.00;;;20.56;52.57
62617;BME280;62539;51.190;6.808;2023-05-01T03:11:52;101239.28;;;20.55;52.32
62617;BME280;62539;51.190;6.808;2023-05-01T03:14:17;101244.53;;;20.55;52.17
62617;BME280;62539;51.190;6.808;2023-05-01T03:16:42;101234.91;;;20.54;52.24
62617;BME280;62539;51.190;6.808;2023-05-01T03:19:08;101234.91;;;20.54;52.18
62617;BME280;62539;51.190;6.808;2023-05-01T03:21:34;101227.06;;;20.53;52.14
62617;BME280;62539;51.190;6.808;2023-05-01T03:24:01;101220.94;;;20.52;52.46
62617;BME280;62539;51.190;6.808;2023-05-01T03:26:27;101228.00;;;20.52;52.26
62617;BME280;62539;51.190;6.808;2023-05-01T03:28:52;101225.41;;;20.50;52.43
62617;BME280;62539;51.190;6.808;2023-05-01T03:31:18;101214.91;;;20.49;52.20
62617;BME280;62539;51.190;6.808;2023-05-01T03:33:43;101219.31;;;20.48;52.21
62617;BME280;62539;51.190;6.808;2023-05-01T03:36:09;101214.91;;;20.49;52.50
62617;BME280;62539;51.190;6.808;2023-05-01T03:38:37;101205.22;;;20.49;52.27
62617;BME280;62539;51.190;6.808;2023-05-01T03:41:02;101208.66;;;20.51;52.19
62617;BME280;62539;51.190;6.808;2023-05-01T03:43:29;101208.56;;;20.54;52.00
62617;BME280;62539;51.190;6.808;2023-05-01T03:45:56;101206.63;;;20.60;51.85
62617;BME280;62539;51.190;6.808;2023-05-01T03:48:22;101206.50;;;20.63;52.04
62617;BME280;62539;51.190;6.808;2023-05-01T03:50:49;101209.84;;;20.68;51.56
62617;BME280;62539;51.190;6.808;2023-05-01T03:53:14;101201.88;;;20.69;51.39
62617;BME280;62539;51.190;6.808;2023-05-01T03:55:40;101206.16;;;20.72;51.45
62617;BME280;62539;51.190;6.808;2023-05-01T03:58:06;101206.13;;;20.74;51.33
62617;BME280;62539;51.190;6.808;2023-05-01T04:00:32;101195.50;;;20.75;51.32
62617;BME280;62539;51.190;6.808;2023-05-01T04:02:57;101197.22;;;20.76;51.16
62617;BME280;62539;51.190;6.808;2023-05-01T04:05:23;101193.66;;;20.77;51.08
62617;BME280;62539;51.190;6.808;2023-05-01T04:07:49;101198.94;;;20.77;51.15
62617;BME280;62539;51.190;6.808;2023-05-01T04:10:14;101197.16;;;20.79;51.06
62617;BME280;62539;51.190;6.808;2023-05-01T04:12:41;101191.88;;;20.79;51.01
62617;BME280;62539;51.190;6.808;2023-05-01T04:15:07;101200.59;;;20.81;50.96
62617;BME280;62539;51.190;6.808;2023-05-01T04:17:34;101197.09;;;20.81;51.08
62617;BME280;62539;51.190;6.808;2023-05-01T04:20:01;101190.03;;;20.81;51.05
62617;BME280;62539;51.190;6.808;2023-05-01T04:22:29;101191.81;;;20.81;51.21
62617;BME280;62539;51.190;6.808;2023-05-01T04:24:55;101191.81;;;20.81;51.15
62617;BME280;62539;51.190;6.808;2023-05-01T04:27:20;101190.03;;;20.81;50.69
62617;BME280;62539;51.190;6.808;2023-05-01T04:29:45;101187.34;;;20.83;50.76
62617;BME280;62539;51.190;6.808;2023-05-01T04:32:11;101185.53;;;20.85;50.79
62617;BME280;62539;51.190;6.808;2023-05-01T04:34:36;101186.22;;;20.90;50.92
62617;BME280;62539;51.190;6.808;2023-05-01T04:37:02;101193.13;;;20.93;50.93
62617;BME280;62539;51.190;6.808;2023-05-01T04:39:28;101189.66;;;20.92;50.76
62617;BME280;62539;51.190;6.808;2023-05-01T04:41:53;101185.19;;;20.94;50.68
62617;BME280;62539;51.190;6.808;2023-05-01T04:44:18;101191.28;;;20.95;50.60
62617;BME280;62539;51.190;6.808;2023-05-01T04:46:44;101185.09;;;20.96;50.37
62617;BME280;62539;51.190;6.808;2023-05-01T04:49:10;101185.09;;;20.96;50.13
62617;BME280;62539;51.190;6.808;2023-05-01T04:51:35;101190.34;;;20.97;50.47
62617;BME280;62539;51.190;6.808;2023-05-01T04:54:01;101182.41;;;20.97;50.11
62617;BME280;62539;51.190;6.808;2023-05-01T04:56:28;101184.19;;;20.97;50.10
62617;BME280;62539;51.190;6.808;2023-05-01T04:58:54;101185.06;;;20.97;50.51
62617;BME280;62539;51.190;6.808;2023-05-01T05:01:19;101188.50;;;20.99;50.28
62617;BME280;62539;51.190;6.808;2023-05-01T05:03:45;101185.78;;;21.01;50.68
62617;BME280;62539;51.190;6.808;2023-05-01T05:06:10;101187.47;;;21.04;50.55
62617;BME280;62539;51.190;6.808;2023-05-01T05:08:35;101184.75;;;21.05;50.54
62617;BME280;62539;51.190;6.808;2023-05-01T05:11:01;101185.53;;;21.07;50.42
62617;BME280;62539;51.190;6.808;2023-05-01T05:13:27;101192.53;;;21.08;50.61
62617;BME280;62539;51.190;6.808;2023-05-01T05:15:52;101188.06;;;21.10;50.53
62617;BME280;62539;51.190;6.808;2023-05-01T05:18:18;101191.59;;;21.11;50.46
62617;BME280;62539;51.190;6.808;2023-05-01T05:20:44;101188.88;;;21.12;50.40
62617;BME280;62539;51.190;6.808;2023-05-01T05:23:09;101192.31;;;21.14;50.45
62617;BME280;62539;51.190;6.808;2023-05-01T05:25:35;101185.19;;;21.17;50.27
62617;BME280;62539;51.190;6.808;2023-05-01T05:28:00;101191.28;;;21.19;50.50
62617;BME280;62539;51.190;6.808;2023-05-01T05:30:26;101192.06;;;21.21;50.23
62617;BME280;62539;51.190;6.808;2023-05-01T05:32:52;101193.78;;;21.22;50.04
62617;BME280;62539;51.190;6.808;2023-05-01T05:35:17;101194.63;;;21.22;50.17
62617;BME280;62539;51.190;6.808;2023-05-01T05:37:43;101191.94;;;21.24;50.48
62617;BME280;62539;51.190;6.808;2023-05-01T05:40:09;101193.66;;;21.25;50.36
62617;BME280;62539;51.190;6.808;2023-05-01T05:42:35;101190.09;;;21.26;50.15
62617;BME280;62539;51.190;6.808;2023-05-01T05:45:00;101191.81;;;21.27;50.12
62617;BME280;62539;51.190;6.808;2023-05-01T05:47:26;101188.28;;;21.28;49.71
62617;BME280;62539;51.190;6.808;2023-05-01T05:49:51;101186.53;;;21.27;49.96
62617;BME280;62539;51.190;6.808;2023-05-01T05:52:17;101190.00;;;21.29;50.18
62617;BME280;62539;51.190;6.808;2023-05-01T05:54:42;101188.16;;;21.31;50.33
62617;BME280;62539;51.190;6.808;2023-05-01T05:57:08;101193.34;;;21.33;50.83
62617;BME280;62539;51.190;6.808;2023-05-01T05:59:33;101184.47;;;21.35;50.73
62617;BME280;62539;51.190;6.808;2023-05-01T06:01:59;101180.91;;;21.36;50.83
62617;BME280;62539;51.190;6.808;2023-05-01T06:04:24;101192.25;;;21.38;51.37
62617;BME280;62539;51.190;6.808;2023-05-01T06:06:50;101189.53;;;21.40;51.00
62617;BME280;62539;51.190;6.808;2023-05-01T06:09:15;101193.06;;;21.40;51.21
62617;BME280;62539;51.190;6.808;2023-05-01T06:11:43;101185.94;;;21.42;51.10
62617;BME280;62539;51.190;6.808;2023-05-01T06:14:09;101195.56;;;21.43;51.57
62617;BME280;62539;51.190;6.808;2023-05-01T06:16:35;101194.66;;;21.44;51.14
62617;BME280;62539;51.190;6.808;2023-05-01T06:19:02;101184.09;;;21.44;50.89
62617;BME280;62539;51.190;6.808;2023-05-01T06:21:27;101195.44;;;21.47;51.31
62617;BME280;62539;51.190;6.808;2023-05-01T06:23:53;101187.53;;;21.47;51.31
62617;BME280;62539;51.190;6.808;2023-05-01T06:26:18;101186.66;;;21.46;50.60
62617;BME280;62539;51.190;6.808;2023-05-01T06:28:44;101179.63;;;21.47;50.88
62617;BME280;62539;51.190;6.808;2023-05-01T06:31:09;101185.69;;;21.49;50.79
62617;BME280;62539;51.190;6.808;2023-05-01T06:33:35;101182.97;;;21.50;50.55
62617;BME280;62539;51.190;6.808;2023-05-01T06:36:00;101173.28;;;21.51;50.80
62617;BME280;62539;51.190;6.808;2023-05-01T06:38:26;101180.28;;;21.52;50.93
62617;BME280;62539;51.190;6.808;2023-05-01T06:40:51;101178.44;;;21.54;51.12
62617;BME280;62539;51.190;6.808;2023-05-01T06:43:17;101178.44;;;21.54;51.20
62617;BME280;62539;51.190;6.808;2023-05-01T06:45:42;101176.59;;;21.56;51.08
62617;BME280;62539;51.190;6.808;2023-05-01T06:48:08;101182.69;;;21.58;51.08
62617;BME280;62539;51.190;6.808;2023-05-01T06:50:33;101180.88;;;21.58;51.30
62617;BME280;62539;51.190;6.808;2023-05-01T06:52:59;101181.75;;;21.59;51.20
62617;BME280;62539;51.190;6.808;2023-05-01T06:55:26;101184.41;;;21.59;51.29
62617;BME280;62539;51.190;6.808;2023-05-01T06:57:55;101183.47;;;21.60;50.82
62617;BME280;62539;51.190;6.808;2023-05-01T07:00:21;101185.19;;;21.61;51.02
62617;BME280;62539;51.190;6.808;2023-05-01T07:02:46;101187.78;;;21.63;51.26
62617;BME280;62539;51.190;6.808;2023-05-01T07:05:12;101185.16;;;21.63;51.14
62617;BME280;62539;51.190;6.808;2023-05-01T07:07:37;101181.53;;;21.65;50.94
62617;BME280;62539;51.190;6.808;2023-05-01T07:10:03;101178.81;;;21.67;50.53
62617;BME280;62539;51.190;6.808;2023-05-01T07:12:28;101185.81;;;21.68;50.77
62617;BME280;62539;51.190;6.808;2023-05-01T07:14:54;101179.63;;;21.69;50.58
62617;BME280;62539;51.190;6.808;2023-05-01T07:17:21;101179.56;;;21.70;50.98
62617;BME280;62539;51.190;6.808;2023-05-01T07:19:47;101175.09;;;21.72;50.92
62617;BME280;62539;51.190;6.808;2023-05-01T07:22:12;101167.97;;;21.75;50.40
62617;BME280;62539;51.190;6.808;2023-05-01T07:24:37;101177.59;;;21.76;50.90
62617;BME280;62539;51.190;6.808;2023-05-01T07:27:03;101169.59;;;21.77;50.94
62617;BME280;62539;51.190;6.808;2023-05-01T07:29:28;101169.59;;;21.77;51.30
62617;BME280;62539;51.190;6.808;2023-05-01T07:31:54;101167.75;;;21.79;51.16
62617;BME280;62539;51.190;6.808;2023-05-01T07:34:20;101173.91;;;21.80;50.96
62617;BME280;62539;51.190;6.808;2023-05-01T07:36:45;101168.53;;;21.81;50.68
62617;BME280;62539;51.190;6.808;2023-05-01T07:39:11;101167.63;;;21.82;50.68
62617;BME280;62539;51.190;6.808;2023-05-01T07:41:37;101167.63;;;21.82;50.91
62617;BME280;62539;51.190;6.808;2023-05-01T07:44:03;101167.56;;;21.84;50.74
62617;BME280;62539;51.190;6.808;2023-05-01T07:46:28;101168.41;;;21.84;50.41
62617;BME280;62539;51.190;6.808;2023-05-01T07:48:54;101159.66;;;21.84;50.73
62617;BME280;62539;51.190;6.808;2023-05-01T07:51:19;101153.44;;;21.85;50.83
62617;BME280;62539;51.190;6.808;2023-05-01T07:53:45;101150.66;;;21.88;50.75
62617;BME280;62539;51.190;6.808;2023-05-01T07:56:11;101146.31;;;21.87;50.30
62617;BME280;62539;51.190;6.808;2023-05-01T07:58:37;101145.38;;;21.88;50.46
62617;BME280;62539;51.190;6.808;2023-05-01T08:01:02;101147.09;;;21.89;50.01
62617;BME280;62539;51.190;6.808;2023-05-01T08:03:30;101146.19;;;21.90;50.07
62617;BME280;62539;51.190;6.808;2023-05-01T08:05:56;101148.69;;;21.93;50.30
62617;BME280;62539;51.190;6.808;2023-05-01T08:08:21;101151.25;;;21.95;50.17
62617;BME280;62539;51.190;6.808;2023-05-01T08:10:47;101155.56;;;21.97;50.37
62617;BME280;62539;51.190;6.808;2023-05-01T08:13:13;101152.00;;;21.98;49.72
62617;BME280;62539;51.190;6.808;2023-05-01T08:15:38;101159.84;;;22.00;49.92
62617;BME280;62539;51.190;6.808;2023-05-01T08:18:07;101152.66;;;22.03;50.02
62617;BME280;62539;51.190;6.808;2023-05-01T08:20:36;101158.72;;;22.06;49.73
62617;BME280;62539;51.190;6.808;2023-05-01T08:23:01;101157.81;;;22.07;49.36
62617;BME280;62539;51.190;6.808;2023-05-01T08:25:27;101158.59;;;22.09;49.80
62617;BME280;62539;51.190;6.808;2023-05-01T08:27:52;101157.66;;;22.10;49.62
62617;BME280;62539;51.190;6.808;2023-05-01T08:30:18;101161.94;;;22.12;49.81
62617;BME280;62539;51.190;6.808;2023-05-01T08:32:43;101161.91;;;22.14;49.74
62617;BME280;62539;51.190;6.808;2023-05-01T08:35:08;101160.88;;;22.16;50.01
62617;BME280;62539;51.190;6.808;2023-05-01T08:37:34;101161.75;;;22.17;49.98
62617;BME280;62539;51.190;6.808;2023-05-01T08:40:00;101158.19;;;22.18;49.77
62617;BME280;62539;51.190;6.808;2023-05-01T08:42:28;101161.63;;;22.20;49.56
62617;BME280;62539;51.190;6.808;2023-05-01T08:44:56;101158.06;;;22.21;49.82
62617;BME280;62539;51.190;6.808;2023-05-01T08:47:24;101158.91;;;22.22;49.73
62617;BME280;62539;51.190;6.808;2023-05-01T08:49:51;101162.34;;;22.24;50.13
62617;BME280;62539;51.190;6.808;2023-05-01T08:52:19;101163.25;;;22.23;49.98
62617;BME280;62539;51.190;6.808;2023-05-01T08:54:47;101171.94;;;22.26;49.88
62617;BME280;62539;51.190;6.808;2023-05-01T08:57:16;101169.28;;;22.26;49.63
62617;BME280;62539;51.190;6.808;2023-05-01T08:59:43;101169.94;;;22.31;49.64
62617;BME280;62539;51.190;6.808;2023-05-01T09:02:10;101164.56;;;22.33;49.58
62617;BME280;62539;51.190;6.808;2023-05-01T09:04:39;101158.34;;;22.34;49.74
62617;BME280;62539;51.190;6.808;2023-05-01T09:07:06;101167.94;;;22.37;49.54
62617;BME280;62539;51.190;6.808;2023-05-01T09:09:33;101165.31;;;22.37;50.07
62617;BME280;62539;51.190;6.808;2023-05-01T09:12:11;101164.25;;;22.41;49.91
62617;BME280;62539;51.190;6.808;2023-05-01T09:14:46;101166.81;;;22.42;49.78
62617;BME280;62539;51.190;6.808;2023-05-01T09:17:12;101162.38;;;22.43;50.17
62617;BME280;62539;51.190;6.808;2023-05-01T09:19:37;101154.47;;;22.43;50.03
62617;BME280;62539;51.190;6.808;2023-05-01T09:22:05;101158.81;;;22.44;50.25
62617;BME280;62539;51.190;6.808;2023-05-01T09:24:31;101160.56;;;22.45;50.01
62617;BME280;62539;51.190;6.808;2023-05-01T09:26:57;101158.72;;;22.47;50.09
62617;BME280;62539;51.190;6.808;2023-05-01T09:29:42;101149.84;;;22.48;49.95
62617;BME280;62539;51.190;6.808;2023-05-01T09:34:42;101150.41;;;22.55;50.12
62617;BME280;62539;51.190;6.808;2023-05-01T09:37:23;101152.88;;;22.59;50.06
62617;BME280;62539;51.190;6.808;2023-05-01T09:42:28;101149.00;;;22.67;49.72
62617;BME280;62539;51.190;6.808;2023-05-01T09:44:55;101148.88;;;22.70;49.56
62617;BME280;62539;51.190;6.808;2023-05-01T09:47:21;101147.81;;;22.74;49.74
62617;BME280;62539;51.190;6.808;2023-05-01T09:49:47;101147.72;;;22.75;49.61
62617;BME280;62539;51.190;6.808;2023-05-01T09:52:13;101147.56;;;22.79;50.00
62617;BME280;62539;51.190;6.808;2023-05-01T09:54:40;101152.81;;;22.80;49.59
62617;BME280;62539;51.190;6.808;2023-05-01T09:57:05;101151.88;;;22.81;49.56
62617;BME280;62539;51.190;6.808;2023-05-01T09:59:31;101142.13;;;22.82;49.99
62617;BME280;62539;51.190;6.808;2023-05-01T10:01:59;101154.28;;;22.86;49.75
62617;BME280;62539;51.190;6.808;2023-05-01T10:04:31;101132.19;;;22.87;50.15
62617;BME280;62539;51.190;6.808;2023-05-01T10:07:10;101139.16;;;22.89;49.80
62617;BME280;62539;51.190;6.808;2023-05-01T10:09:38;101133.84;;;22.89;49.59
62617;BME280;62539;51.190;6.808;2023-05-01T10:12:05;101141.56;;;22.94;49.49
62617;BME280;62539;51.190;6.808;2023-05-01T10:14:30;101141.50;;;22.96;49.54
62617;BME280;62539;51.190;6.808;2023-05-01T10:17:16;101135.28;;;22.97;49.94
62617;BME280;62539;51.190;6.808;2023-05-01T10:19:43;101134.25;;;22.99;49.51
62617;BME280;62539;51.190;6.808;2023-05-01T10:22:09;101131.47;;;23.02;49.54
62617;BME280;62539;51.190;6.808;2023-05-01T10:24:35;101133.97;;;23.05;49.30
62617;BME280;62539;51.190;6.808;2023-05-01T10:27:02;101134.69;;;23.09;49.66
62617;BME280;62539;51.190;6.808;2023-05-01T10:29:33;101138.91;;;23.13;49.40
62617;BME280;62539;51.190;6.808;2023-05-01T10:32:00;101121.94;;;23.17;49.25
62617;BME280;62539;51.190;6.808;2023-05-01T10:34:29;101126.03;;;23.25;48.97
62617;BME280;62539;51.190;6.808;2023-05-01T10:37:01;101125.97;;;23.26;48.81
62617;BME280;62539;51.190;6.808;2023-05-01T10:39:34;101124.97;;;23.29;48.64
62617;BME280;62539;51.190;6.808;2023-05-01T10:42:04;101123.09;;;23.31;48.46
62617;BME280;62539;51.190;6.808;2023-05-01T10:44:35;101117.66;;;23.34;47.61
62617;BME280;62539;51.190;6.808;2023-05-01T10:48:05;101115.78;;;23.36;46.51
62617;BME280;62539;51.190;6.808;2023-05-01T10:50:13;101117.81;;;23.48;46.18
62617;BME280;62539;51.190;6.808;2023-05-01T10:55:37;101107.53;;;23.60;44.92
62617;BME280;62539;51.190;6.808;2023-05-01T10:58:04;101113.63;;;23.62;44.39
62617;BME280;62539;51.190;6.808;2023-05-01T11:00:30;101107.06;;;23.69;44.39
62617;BME280;62539;51.190;6.808;2023-05-01T11:06:05;101104.19;;;23.74;45.40
62617;BME280;62539;51.190;6.808;2023-05-01T11:08:32;101103.97;;;23.78;45.23
62617;BME280;62539;51.190;6.808;2023-05-01T11:14:01;101096.44;;;23.87;45.67
62617;BME280;62539;51.190;6.808;2023-05-01T11:22:11;101098.16;;;24.05;45.00
62617;BME280;62539;51.190;6.808;2023-05-01T11:24:37;101105.00;;;24.10;45.07
62617;BME280;62539;51.190;6.808;2023-05-01T11:27:03;101095.94;;;24.14;44.71
62617;BME280;62539;51.190;6.808;2023-05-01T11:29:31;101086.91;;;24.18;44.89
62617;BME280;62539;51.190;6.808;2023-05-01T11:31:58;101090.16;;;24.23;44.52
62617;BME280;62539;51.190;6.808;2023-05-01T11:34:25;101096.94;;;24.29;44.45
62617;BME280;62539;51.190;6.808;2023-05-01T11:36:51;101090.44;;;24.34;44.54
62617;BME280;62539;51.190;6.808;2023-05-01T11:39:17;101094.56;;;24.40;44.28
62617;BME280;62539;51.190;6.808;2023-05-01T11:41:44;101087.13;;;24.47;44.04
62617;BME280;62539;51.190;6.808;2023-05-01T11:44:11;101088.50;;;24.54;44.20
62617;BME280;62539;51.190;6.808;2023-05-01T11:46:39;101092.63;;;24.60;43.15
62617;BME280;62539;51.190;6.808;2023-05-01T11:49:05;101093.13;;;24.66;43.84
62617;BME280;62539;51.190;6.808;2023-05-01T11:51:30;101083.84;;;24.75;43.71
62617;BME280;62539;51.190;6.808;2023-05-01T11:54:16;101078.09;;;24.83;43.79
62617;BME280;62539;51.190;6.808;2023-05-01T11:56:42;101075.84;;;24.91;43.18
62617;BME280;62539;51.190;6.808;2023-05-01T11:59:12;101078.25;;;24.96;43.13
62617;BME280;62539;51.190;6.808;2023-05-01T12:01:44;101078.91;;;25.00;43.11
62617;BME280;62539;51.190;6.808;2023-05-01T12:04:11;101076.38;;;24.98;42.54
62617;BME280;62539;51.190;6.808;2023-05-01T12:06:44;101076.09;;;25.03;41.41
62617;BME280;62539;51.190;6.808;2023-05-01T12:09:23;101072.13;;;25.10;42.19
62617;BME280;62539;51.190;6.808;2023-05-01T12:11:51;101073.97;;;25.09;42.09
62617;BME280;62539;51.190;6.808;2023-05-01T12:14:19;101070.59;;;25.06;42.11
62617;BME280;62539;51.190;6.808;2023-05-01T12:16:48;101062.06;;;25.01;42.25
62617;BME280;62539;51.190;6.808;2023-05-01T12:19:15;101061.63;;;24.92;42.76
62617;BME280;62539;51.190;6.808;2023-05-01T12:21:41;101057.63;;;24.85;42.95
62617;BME280;62539;51.190;6.808;2023-05-01T12:24:09;101061.41;;;24.81;43.06
62617;BME280;62539;51.190;6.808;2023-05-01T12:26:35;101054.56;;;24.77;42.85
62617;BME280;62539;51.190;6.808;2023-05-01T12:29:03;101063.44;;;24.76;43.13
62617;BME280;62539;51.190;6.808;2023-05-01T12:31:30;101057.91;;;24.80;42.66
62617;BME280;62539;51.190;6.808;2023-05-01T12:34:02;101055.38;;;24.93;42.71
62617;BME280;62539;51.190;6.808;2023-05-01T12:36:31;101050.78;;;24.97;42.83
62617;BME280;62539;51.190;6.808;2023-05-01T12:41:42;101052.59;;;24.80;43.11
62617;BME280;62539;51.190;6.808;2023-05-01T12:46:44;101048.13;;;24.65;43.01
62617;BME280;62539;51.190;6.808;2023-05-01T12:49:17;101053.84;;;24.57;42.83
62617;BME280;62539;51.190;6.808;2023-05-01T12:51:51;101056.44;;;24.59;43.17
62617;BME280;62539;51.190;6.808;2023-05-01T12:54:26;101043.50;;;24.52;43.63
62617;BME280;62539;51.190;6.808;2023-05-01T12:57:04;101042.97;;;24.46;43.04
62617;BME280;62539;51.190;6.808;2023-05-01T12:59:35;101042.31;;;24.42;43.46
62617;BME280;62539;51.190;6.808;2023-05-01T13:02:10;101042.38;;;24.41;42.75
62617;BME280;62539;51.190;6.808;2023-05-01T13:04:39;101043.31;;;24.40;42.55
62617;BME280;62539;51.190;6.808;2023-05-01T13:07:12;101048.00;;;24.34;43.13
62617;BME280;62539;51.190;6.808;2023-05-01T13:09:57;101051.00;;;24.28;41.70
62617;BME280;62539;51.190;6.808;2023-05-01T13:12:24;101054.75;;;24.24;42.85
62617;BME280;62539;51.190;6.808;2023-05-01T13:14:52;101062.09;;;24.19;42.23
62617;BME280;62539;51.190;6.808;2023-05-01T13:17:31;101066.91;;;24.12;41.51
62617;BME280;62539;51.190;6.808;2023-05-01T13:20:01;101071.50;;;24.08;40.72
62617;BME280;62539;51.190;6.808;2023-05-01T13:22:32;101070.97;;;24.02;40.71
62617;BME280;62539;51.190;6.808;2023-05-01T13:24:58;101076.56;;;23.96;40.83